Time;durP1;ratioP1;P1;durP2;ratioP2;P2;SDS_P1;SDS_P2;PMS_P1;PMS_P2;Temp;Humidity;BMP_temperature;BMP_pressure;BME280_temperature;BME280_humidity;BME280_pressure;Samples;Min_cycle;Max_cycle;Signal;HPM_P1;HPM_P2
2022/12/25 00:00:26;;;;;;;70.13;22.85;;;7.60;99.90;;;;;;5030015;28;20415;-67
2022/12/25 00:02:52;;;;;;;93.05;25.33;;;6.50;99.90;;;;;;5031353;28;20042;-67
2022/12/25 00:05:18;;;;;;;77.18;24.48;;;6.80;99.90;;;;;;5026180;28;20042;-67
2022/12/25 00:07:43;;;;;;;109.78;29.17;;;6.80;99.90;;;;;;5032024;28;20045;-67
2022/12/25 00:10:09;;;;;;;106.40;29.70;;;9.80;99.90;;;;;;5031974;28;20460;-66
2022/12/25 00:12:35;;;;;;;113.45;29.30;;;6.20;99.90;;;;;;5030246;28;20057;-66
2022/12/25 00:15:01;;;;;;;130.50;32.08;;;8.70;99.90;;;;;;5009211;28;20049;-67
2022/12/25 00:17:26;;;;;;;93.88;26.25;;;6.60;99.90;;;;;;5012556;28;20049;-67
2022/12/25 00:19:52;;;;;;;77.60;23.92;;;7.00;99.90;;;;;;5031219;28;20546;-66
2022/12/25 00:22:17;;;;;;;74.43;24.27;;;10.00;99.90;;;;;;5020888;28;20176;-66
2022/12/25 00:24:45;;;;;;;84.68;24.02;;;10.10;99.90;;;;;;5028345;28;20064;-67
2022/12/25 00:27:11;;;;;;;110.60;32.88;;;10.00;99.90;;;;;;5026070;28;20442;-67
2022/12/25 00:29:36;;;;;;;81.72;25.23;;;7.10;99.90;;;;;;5029451;28;20042;-67
2022/12/25 00:32:02;;;;;;;117.07;31.63;;;9.40;99.90;;;;;;5027927;28;20038;-67
2022/12/25 00:34:27;;;;;;;121.88;32.33;;;10.00;99.90;;;;;;5028819;28;20119;-67
2022/12/25 00:36:53;;;;;;;98.68;29.33;;;9.30;99.90;;;;;;5029941;28;20033;-67
2022/12/25 00:39:18;;;;;;;88.65;26.48;;;10.10;99.90;;;;;;5029946;28;20045;-67
2022/12/25 00:44:28;;;;;;;83.13;26.20;;;6.40;99.90;;;;;;5028660;28;20530;-67
2022/12/25 00:46:54;;;;;;;114.90;32.92;;;6.50;99.90;;;;;;5020638;28;20046;-67
2022/12/25 00:49:22;;;;;;;125.78;32.10;;;7.70;99.90;;;;;;5024834;28;20467;-67
2022/12/25 00:51:49;;;;;;;136.75;34.20;;;7.60;99.90;;;;;;5029869;28;20120;-67
2022/12/25 00:54:14;;;;;;;117.88;33.08;;;8.20;99.90;;;;;;5029310;28;20407;-67
2022/12/25 00:56:40;;;;;;;71.72;24.95;;;9.80;99.90;;;;;;5024172;28;20083;-67
2022/12/25 00:59:05;;;;;;;82.60;24.42;;;9.50;99.90;;;;;;5035314;28;20041;-67
2022/12/25 01:01:32;;;;;;;82.20;24.05;;;8.70;99.90;;;;;;5013572;28;20046;-67
2022/12/25 01:03:58;;;;;;;74.70;24.67;;;9.60;99.90;;;;;;5033191;28;20072;-67
2022/12/25 01:06:24;;;;;;;110.90;31.15;;;9.40;99.90;;;;;;5021345;28;20519;-67
2022/12/25 01:11:34;;;;;;;112.50;31.38;;;9.80;99.90;;;;;;5034911;28;20053;-67
2022/12/25 01:14:00;;;;;;;92.47;29.63;;;7.50;99.90;;;;;;5034043;28;20423;-67
2022/12/25 01:16:26;;;;;;;84.70;26.45;;;10.00;99.90;;;;;;5031367;28;20084;-67
2022/12/25 01:18:52;;;;;;;76.95;25.30;;;7.60;99.90;;;;;;5039195;28;20091;-67
2022/12/25 01:21:19;;;;;;;81.43;25.52;;;10.30;99.90;;;;;;5028488;28;20041;-67
2022/12/25 01:23:46;;;;;;;68.22;25.10;;;8.80;99.90;;;;;;5029325;28;20056;-67
2022/12/25 01:26:13;;;;;;;104.68;29.42;;;10.50;99.90;;;;;;5032805;28;20391;-67
2022/12/25 01:28:39;;;;;;;132.60;33.63;;;7.80;99.90;;;;;;5029703;28;20038;-67
2022/12/25 01:31:10;;;;;;;74.03;25.85;;;8.40;99.90;;;;;;5033068;28;20526;-67
2022/12/25 01:33:36;;;;;;;102.70;29.05;;;9.10;99.90;;;;;;5026578;28;20501;-67
2022/12/25 01:36:03;;;;;;;103.32;31.20;;;10.40;99.90;;;;;;5023926;28;20041;-67
2022/12/25 01:38:29;;;;;;;76.47;27.13;;;8.30;99.90;;;;;;5032789;28;20543;-67
2022/12/25 01:40:54;;;;;;;82.60;29.00;;;10.70;99.90;;;;;;5032363;28;20124;-67
2022/12/25 01:43:22;;;;;;;80.30;25.35;;;10.70;99.90;;;;;;5013251;28;20053;-67
2022/12/25 01:45:48;;;;;;;106.75;33.22;;;10.50;99.90;;;;;;5020515;28;20060;-67
2022/12/25 01:48:17;;;;;;;60.90;24.50;;;8.90;99.90;;;;;;5019455;28;20038;-67
2022/12/25 01:50:46;;;;;;;106.10;31.95;;;8.80;99.90;;;;;;5031283;28;20041;-67
2022/12/25 01:53:12;;;;;;;101.82;29.25;;;8.70;99.90;;;;;;5033097;28;20116;-67
2022/12/25 01:55:38;;;;;;;80.65;26.77;;;9.80;99.90;;;;;;5033925;28;20125;-67
2022/12/25 01:58:04;;;;;;;69.72;23.92;;;10.60;99.90;;;;;;5032348;28;20046;-67
2022/12/25 02:00:29;;;;;;;62.60;23.70;;;10.70;99.90;;;;;;5031100;28;20517;-67
2022/12/25 02:02:56;;;;;;;62.17;24.50;;;8.40;99.90;;;;;;5033168;28;20120;-67
2022/12/25 02:05:28;;;;;;;66.22;22.88;;;9.80;99.90;;;;;;5032388;28;20037;-67
2022/12/25 02:07:55;;;;;;;98.78;31.77;;;9.20;99.90;;;;;;5016019;28;20038;-67
2022/12/25 02:10:21;;;;;;;72.65;25.15;;;7.90;99.90;;;;;;5022376;28;20034;-67
2022/12/25 02:12:47;;;;;;;93.70;28.58;;;8.90;99.90;;;;;;5032233;28;20137;-67
2022/12/25 02:15:18;;;;;;;104.50;29.27;;;7.80;99.90;;;;;;5033141;28;20032;-67
2022/12/25 02:17:56;;;;;;;64.70;22.08;;;7.80;99.90;;;;;;5033041;28;20123;-67
2022/12/25 02:20:24;;;;;;;78.97;25.95;;;7.80;99.90;;;;;;5030433;28;20065;-67
2022/12/25 02:23:27;;;;;;;80.75;24.83;;;9.60;99.90;;;;;;5032652;28;20490;-67
2022/12/25 02:26:20;;;;;;;69.63;23.70;;;8.30;99.90;;;;;;5034032;28;20486;-67
2022/12/25 02:29:06;;;;;;;66.35;25.52;;;9.50;99.90;;;;;;5013678;28;20049;-67
2022/12/25 02:32:14;;;;;;;65.18;25.52;;;10.10;99.90;;;;;;5017802;28;20034;-67
2022/12/25 02:35:06;;;;;;;;;;;11.10;99.90;;;;;;5001215;28;20054;-67
2022/12/25 02:37:53;;;;;;;62.78;21.85;;;8.20;99.90;;;;;;5027767;28;20337;-67
2022/12/25 02:40:37;;;;;;;57.15;21.98;;;11.10;99.90;;;;;;5031258;28;20055;-67
2022/12/25 03:08:23;;;;;;;51.33;23.20;;;8.50;99.90;;;;;;5024893;28;20211;-67
2022/12/25 03:13:50;;;;;;;91.80;31.92;;;9.40;99.90;;;;;;5029557;28;20136;-67
2022/12/25 03:26:53;;;;;;;62.60;26.98;;;10.50;99.90;;;;;;5026233;28;20543;-67
2022/12/25 03:27:15;;;;;;;81.85;32.80;;;8.80;99.90;;;;;;5029006;28;20053;-67
2022/12/25 03:32:33;;;;;;;90.32;35.22;;;11.40;99.90;;;;;;5031877;28;20380;-67
2022/12/25 03:35:30;;;;;;;68.15;28.45;;;8.40;99.90;;;;;;5032220;28;20087;-67
2022/12/25 04:36:34;;;;;;;57.85;26.83;;;8.80;99.90;;;;;;5030621;28;20068;-67
2022/12/25 04:39:00;;;;;;;55.92;26.10;;;8.40;99.90;;;;;;5030274;28;20403;-67
2022/12/25 04:41:25;;;;;;;66.70;31.67;;;9.10;99.90;;;;;;5030603;28;20541;-67
2022/12/25 04:43:51;;;;;;;73.30;31.85;;;11.70;99.90;;;;;;5021613;28;20117;-67
2022/12/25 04:46:16;;;;;;;118.10;39.20;;;9.00;99.90;;;;;;5022299;28;20074;-67
2022/12/25 04:48:42;;;;;;;112.45;39.78;;;10.60;99.90;;;;;;5024007;28;20501;-67
2022/12/25 04:51:12;;;;;;;68.03;30.55;;;12.40;99.90;;;;;;5030252;28;20034;-67
2022/12/25 04:53:37;;;;;;;111.60;41.22;;;8.90;99.90;;;;;;5028029;28;20033;-67
2022/12/25 04:56:03;;;;;;;94.72;33.17;;;12.10;99.90;;;;;;5022919;28;20442;-67
2022/12/25 04:58:30;;;;;;;74.00;30.88;;;8.40;99.90;;;;;;5031153;28;20092;-67
2022/12/25 05:01:01;;;;;;;99.07;32.10;;;8.40;99.90;;;;;;5031940;28;20038;-67
2022/12/25 05:03:27;;;;;;;78.72;31.67;;;11.90;99.90;;;;;;5024947;28;20057;-67
2022/12/25 05:05:53;;;;;;;83.13;33.22;;;11.50;99.90;;;;;;5030296;28;20395;-67
2022/12/25 05:08:18;;;;;;;85.25;36.63;;;11.60;99.90;;;;;;5029788;28;20038;-67
2022/12/25 05:10:44;;;;;;;39.70;21.92;;;12.00;99.90;;;;;;5032012;28;20045;-67
2022/12/25 05:13:10;;;;;;;83.18;35.72;;;12.50;99.90;;;;;;5024585;28;20045;-67
2022/12/25 05:15:39;;;;;;;61.92;27.98;;;8.40;99.90;;;;;;5030564;28;20128;-67
2022/12/25 05:18:04;;;;;;;65.63;28.50;;;12.50;99.90;;;;;;5031554;28;20045;-67
2022/12/25 05:20:30;;;;;;;53.78;24.60;;;8.30;99.90;;;;;;5031325;28;20509;-67
2022/12/25 05:22:56;;;;;;;63.90;28.45;;;12.50;99.90;;;;;;5029821;28;20167;-67
2022/12/25 05:25:21;;;;;;;84.95;32.80;;;10.10;99.90;;;;;;5030352;28;20091;-67
2022/12/25 05:27:47;;;;;;;76.65;30.60;;;12.60;99.90;;;;;;5029783;28;20057;-67
2022/12/25 05:30:13;;;;;;;65.97;26.95;;;12.30;99.90;;;;;;5030142;28;20445;-67
2022/12/25 05:32:38;;;;;;;68.03;31.50;;;8.70;99.90;;;;;;5028860;28;20037;-67
2022/12/25 05:35:06;;;;;;;57.75;28.90;;;9.80;99.90;;;;;;5029990;28;20034;-68
2022/12/25 05:37:31;;;;;;;48.78;23.15;;;8.80;99.90;;;;;;5030374;28;20069;-68
2022/12/25 05:39:58;;;;;;;48.47;25.02;;;10.90;99.90;;;;;;5033677;28;20176;-67
2022/12/25 05:42:23;;;;;;;55.72;26.05;;;10.00;99.90;;;;;;5033301;28;20041;-67
2022/12/25 05:44:49;;;;;;;48.60;25.50;;;12.50;99.90;;;;;;5028731;28;20049;-67
2022/12/25 05:47:14;;;;;;;45.50;22.30;;;9.80;99.90;;;;;;5033378;28;20081;-67
2022/12/25 05:49:41;;;;;;;65.93;31.48;;;10.70;99.90;;;;;;5033380;28;20033;-67
2022/12/25 05:52:06;;;;;;;55.05;26.48;;;9.60;99.90;;;;;;5016890;28;20073;-67
2022/12/25 05:54:33;;;;;;;58.72;30.10;;;12.30;99.90;;;;;;5028667;28;20065;-67
2022/12/25 05:56:59;;;;;;;55.92;28.08;;;11.60;99.90;;;;;;5033570;28;20148;-67
2022/12/25 05:59:27;;;;;;;49.22;23.13;;;9.00;99.90;;;;;;5033063;28;20132;-67
2022/12/25 06:01:52;;;;;;;49.63;23.40;;;8.90;99.90;;;;;;5033166;28;20148;-67
2022/12/25 06:04:18;;;;;;;45.72;23.38;;;9.50;99.90;;;;;;5025503;28;20585;-67
2022/12/25 06:06:44;;;;;;;60.67;26.20;;;11.00;99.90;;;;;;5034251;28;20045;-67
2022/12/25 06:09:12;;;;;;;80.03;34.30;;;9.90;99.90;;;;;;5032930;28;20037;-67
2022/12/25 06:11:38;;;;;;;76.95;32.88;;;8.40;99.90;;;;;;5032474;28;20053;-67
2022/12/25 06:14:04;;;;;;;88.82;34.70;;;9.50;99.90;;;;;;5029819;28;20045;-67
2022/12/25 06:16:30;;;;;;;59.60;29.85;;;9.30;99.90;;;;;;5034103;28;20120;-67
2022/12/25 06:18:55;;;;;;;68.85;29.85;;;9.90;99.90;;;;;;5031936;28;20171;-67
2022/12/25 06:21:21;;;;;;;43.30;23.13;;;12.10;99.90;;;;;;5032442;28;20045;-67
2022/12/25 06:23:47;;;;;;;60.42;27.98;;;10.60;99.90;;;;;;5030462;28;20491;-67
2022/12/25 06:26:14;;;;;;;56.00;27.00;;;11.10;99.90;;;;;;5033157;28;20506;-67
2022/12/25 06:28:40;;;;;;;76.00;32.65;;;11.50;99.90;;;;;;5027810;28;20112;-67
2022/12/25 06:31:11;;;;;;;61.00;31.88;;;8.10;99.90;;;;;;5032506;28;20502;-67
2022/12/25 06:33:37;;;;;;;62.42;32.58;;;12.10;99.90;;;;;;5032897;28;20509;-67
2022/12/25 06:36:05;;;;;;;52.75;27.15;;;8.30;99.90;;;;;;5031902;28;20064;-67
2022/12/25 06:38:30;;;;;;;55.88;27.17;;;11.60;99.90;;;;;;5030026;28;20420;-67
2022/12/25 06:41:07;;;;;;;48.47;26.58;;;8.20;99.90;;;;;;5032547;28;20037;-67
2022/12/25 06:43:32;;;;;;;49.13;25.98;;;12.50;99.90;;;;;;5032179;28;20068;-67
2022/12/25 06:46:03;;;;;;;60.05;27.98;;;9.10;99.90;;;;;;5033698;28;20074;-67
2022/12/25 06:48:28;;;;;;;65.40;31.65;;;11.40;99.90;;;;;;5018263;28;20048;-67
2022/12/25 06:50:54;;;;;;;53.95;28.45;;;12.50;99.90;;;;;;5031090;28;20116;-67
2022/12/25 06:53:20;;;;;;;73.68;32.80;;;9.20;99.90;;;;;;5030681;28;20037;-67
2022/12/25 06:55:45;;;;;;;52.78;26.52;;;8.30;99.90;;;;;;5019568;28;20541;-67
2022/12/25 06:58:11;;;;;;;52.97;27.42;;;12.20;99.90;;;;;;5024377;28;20037;-67
2022/12/25 07:00:37;;;;;;;59.85;27.67;;;12.40;99.90;;;;;;5048429;28;20034;-67
2022/12/25 07:03:03;;;;;;;48.65;24.73;;;12.10;99.90;;;;;;5032159;28;20073;-67
2022/12/25 07:05:29;;;;;;;50.42;27.85;;;11.70;99.90;;;;;;5032176;28;20441;-67
2022/12/25 07:07:54;;;;;;;59.35;30.98;;;12.50;99.90;;;;;;5027973;28;20038;-67
2022/12/25 07:10:20;;;;;;;64.75;30.17;;;12.50;99.90;;;;;;5031679;28;20068;-67
2022/12/25 07:12:45;;;;;;;73.75;35.35;;;9.60;99.90;;;;;;5031120;28;20053;-67
2022/12/25 07:15:11;;;;;;;71.57;34.15;;;8.40;99.90;;;;;;5016301;28;20577;-67
2022/12/25 07:17:36;;;;;;;62.50;31.27;;;8.50;99.90;;;;;;5019320;28;20048;-67
2022/12/25 07:20:02;;;;;;;65.80;33.25;;;8.80;99.90;;;;;;5031474;28;20048;-67
2022/12/25 07:22:29;;;;;;;59.33;31.92;;;9.90;99.90;;;;;;5027200;28;20052;-67
2022/12/25 07:24:54;;;;;;;77.00;34.97;;;11.70;99.90;;;;;;5032581;28;20179;-67
2022/12/25 07:27:20;;;;;;;82.28;38.40;;;8.50;99.90;;;;;;5031761;28;20124;-67
2022/12/25 07:29:45;;;;;;;56.15;30.40;;;12.60;99.90;;;;;;5031296;28;20037;-68
2022/12/25 07:32:11;;;;;;;88.75;38.85;;;12.90;99.90;;;;;;5030550;28;20046;-68
2022/12/25 07:34:37;;;;;;;70.85;35.75;;;9.20;99.90;;;;;;5028905;28;20098;-68
2022/12/25 07:37:02;;;;;;;61.67;31.48;;;9.40;99.90;;;;;;5022605;28;20045;-67
2022/12/25 07:39:28;;;;;;;54.17;30.92;;;9.00;99.90;;;;;;5026029;28;20053;-68
2022/12/25 07:41:53;;;;;;;50.00;29.38;;;12.90;99.90;;;;;;5008063;28;20124;-67
2022/12/25 07:44:19;;;;;;;67.95;30.80;;;12.20;99.90;;;;;;5032435;28;20041;-68
2022/12/25 07:46:45;;;;;;;71.30;35.25;;;10.00;99.90;;;;;;5029752;28;20494;-68
2022/12/25 07:49:11;;;;;;;67.72;33.70;;;12.20;99.90;;;;;;5030973;28;20037;-68
2022/12/25 07:51:36;;;;;;;68.68;36.22;;;12.50;99.90;;;;;;5017317;28;20044;-68
2022/12/25 07:54:02;;;;;;;61.47;31.73;;;13.00;99.90;;;;;;5028583;28;20429;-68
2022/12/25 07:56:28;;;;;;;56.40;28.33;;;8.90;99.90;;;;;;5031003;28;20439;-68
2022/12/25 07:58:54;;;;;;;45.75;25.88;;;8.80;99.90;;;;;;5023152;28;20450;-68
2022/12/25 08:01:23;;;;;;;34.22;21.05;;;11.60;99.90;;;;;;5025532;28;20053;-68
2022/12/25 08:03:54;;;;;;;55.13;23.45;;;12.30;99.90;;;;;;5032106;28;20064;-68
2022/12/25 08:06:21;;;;;;;56.72;28.92;;;9.20;99.90;;;;;;5018426;28;20045;-68
2022/12/25 08:08:47;;;;;;;52.42;27.55;;;12.70;99.90;;;;;;5028110;28;20088;-68
2022/12/25 08:11:13;;;;;;;46.15;26.42;;;8.50;99.90;;;;;;5028615;28;20065;-68
2022/12/25 08:13:39;;;;;;;40.88;21.35;;;9.10;99.90;;;;;;5029213;28;20037;-68
2022/12/25 08:16:07;;;;;;;40.50;20.83;;;11.40;99.90;;;;;;5031133;28;20039;-68
2022/12/25 08:18:33;;;;;;;32.08;19.10;;;8.80;99.90;;;;;;5031418;28;20518;-68
2022/12/25 08:21:04;;;;;;;33.38;19.33;;;8.70;99.90;;;;;;5030506;28;20128;-68
2022/12/25 08:23:30;;;;;;;43.05;19.75;;;11.30;99.90;;;;;;5030281;28;20495;-68
2022/12/25 08:25:59;;;;;;;44.38;23.70;;;11.90;99.90;;;;;;5031017;28;20095;-68
2022/12/25 08:28:25;;;;;;;38.10;21.52;;;9.40;99.90;;;;;;5030205;28;20045;-68
2022/12/25 08:30:51;;;;;;;35.58;18.40;;;10.90;99.90;;;;;;5031629;28;20125;-68
2022/12/25 08:33:16;;;;;;;46.95;23.13;;;9.40;99.90;;;;;;5030708;28;20036;-68
2022/12/25 08:35:42;;;;;;;42.90;22.42;;;8.80;99.90;;;;;;5030355;28;20530;-68
2022/12/25 08:38:07;;;;;;;31.73;16.55;;;12.20;99.90;;;;;;5029532;28;20053;-68
2022/12/25 08:40:33;;;;;;;33.95;15.70;;;8.90;99.90;;;;;;5023844;28;20126;-68
2022/12/25 08:42:58;;;;;;;34.72;16.73;;;9.00;99.90;;;;;;5029972;28;20045;-68
2022/12/25 08:45:24;;;;;;;44.00;16.55;;;11.10;99.90;;;;;;5031206;28;20415;-68
2022/12/25 08:47:56;;;;;;;31.27;16.02;;;9.80;99.90;;;;;;5029860;28;20124;-68
2022/12/25 08:50:23;;;;;;;38.33;17.45;;;9.40;99.90;;;;;;5010138;28;20117;-68
2022/12/25 08:52:49;;;;;;;33.63;17.95;;;8.80;99.90;;;;;;5017243;28;20169;-68
2022/12/25 08:55:15;;;;;;;41.53;19.42;;;8.70;99.90;;;;;;5027076;28;20506;-68
2022/12/25 08:57:41;;;;;;;30.60;16.73;;;12.40;99.90;;;;;;5029969;28;20037;-68
2022/12/25 09:00:08;;;;;;;36.40;16.52;;;9.50;99.90;;;;;;5024188;28;20038;-68
2022/12/25 09:02:33;;;;;;;25.90;13.70;;;8.60;99.90;;;;;;5027753;28;20128;-68
2022/12/25 09:04:59;;;;;;;28.88;15.23;;;12.20;99.90;;;;;;5030594;28;20080;-68
2022/12/25 09:07:24;;;;;;;31.98;15.55;;;12.60;99.90;;;;;;5027694;28;20049;-68
2022/12/25 09:09:50;;;;;;;24.65;14.07;;;9.20;99.90;;;;;;5027270;28;20033;-68
2022/12/25 09:12:16;;;;;;;31.45;15.80;;;12.60;99.90;;;;;;5028310;28;20085;-67
2022/12/25 09:14:41;;;;;;;32.17;15.70;;;9.60;99.90;;;;;;5031772;28;20099;-68
2022/12/25 09:17:07;;;;;;;28.98;14.75;;;12.00;99.90;;;;;;5030018;28;20053;-68
2022/12/25 09:19:33;;;;;;;35.00;16.83;;;11.20;99.90;;;;;;5032592;28;20037;-68
2022/12/25 09:21:58;;;;;;;29.48;14.77;;;10.40;99.90;;;;;;5030761;28;20041;-68
2022/12/25 09:24:24;;;;;;;25.60;14.80;;;8.80;99.90;;;;;;5034712;28;20033;-68
2022/12/25 09:26:50;;;;;;;30.77;16.05;;;12.70;99.90;;;;;;5032079;28;20069;-68
2022/12/25 09:29:16;;;;;;;31.20;17.25;;;11.00;99.90;;;;;;5033565;28;20042;-68
2022/12/25 09:31:42;;;;;;;31.60;17.00;;;9.00;99.90;;;;;;5030986;28;20053;-67
2022/12/25 09:34:08;;;;;;;39.30;20.55;;;11.50;99.90;;;;;;5033171;28;20037;-68
2022/12/25 09:36:34;;;;;;;29.52;18.10;;;11.00;99.90;;;;;;5033449;28;20432;-68
2022/12/25 09:39:00;;;;;;;32.20;18.50;;;12.60;99.90;;;;;;5022744;28;20169;-68
2022/12/25 09:41:53;;;;;;;45.20;22.63;;;8.60;99.90;;;;;;5029298;28;20077;-68
2022/12/25 09:44:31;;;;;;;33.40;17.42;;;8.90;99.90;;;;;;5031118;28;20026;-68
2022/12/25 09:47:01;;;;;;;34.97;18.02;;;12.20;99.90;;;;;;5033156;28;20502;-68
2022/12/25 09:49:40;;;;;;;33.35;19.67;;;12.10;99.90;;;;;;5032984;28;20095;-68
2022/12/25 09:52:19;;;;;;;40.78;18.98;;;12.50;99.90;;;;;;5032707;28;20470;-68
2022/12/25 09:54:50;;;;;;;33.53;20.13;;;12.70;99.90;;;;;;5028886;28;20253;-68
2022/12/25 09:57:16;;;;;;;46.38;23.75;;;12.10;99.90;;;;;;5023103;28;20099;-68
2022/12/25 09:59:43;;;;;;;46.25;24.55;;;11.10;99.90;;;;;;5031786;28;20434;-69
2022/12/25 10:02:34;;;;;;;41.72;20.02;;;11.90;99.90;;;;;;5032753;28;20407;-67
2022/12/25 10:05:20;;;;;;;35.78;21.45;;;9.10;99.90;;;;;;5034348;28;20407;-67
2022/12/25 10:07:57;;;;;;;40.20;20.48;;;12.30;99.90;;;;;;5025387;28;20041;-67
2022/12/25 10:10:33;;;;;;;39.67;22.02;;;8.80;99.90;;;;;;5015898;28;20045;-68
2022/12/25 10:13:24;;;;;;;40.35;19.55;;;12.40;99.90;;;;;;5032715;28;20550;-68
2022/12/25 10:16:21;;;;;;;31.42;17.48;;;8.80;99.90;;;;;;5031665;28;20124;-68
2022/12/25 10:19:13;;;;;;;28.73;17.42;;;11.30;99.90;;;;;;5032048;28;20513;-68
2022/12/25 10:21:40;;;;;;;43.97;21.67;;;9.70;99.90;;;;;;5015599;28;20415;-67
2022/12/25 10:24:30;;;;;;;36.00;21.88;;;12.30;99.90;;;;;;5033587;28;20037;-68
2022/12/25 10:26:56;;;;;;;37.60;22.65;;;12.20;99.90;;;;;;5032255;28;20077;-68
2022/12/25 10:29:21;;;;;;;27.00;16.25;;;10.70;99.90;;;;;;5023292;28;20470;-70
2022/12/25 10:31:49;;;;;;;25.55;14.93;;;11.00;99.90;;;;;;5025976;28;20041;-69
2022/12/25 10:34:15;;;;;;;33.92;19.63;;;12.10;99.90;;;;;;5028001;28;20038;-67
2022/12/25 10:36:43;;;;;;;29.45;15.70;;;9.60;99.90;;;;;;5026719;28;20054;-70
2022/12/25 10:39:16;;;;;;;26.92;16.38;;;12.60;99.90;;;;;;5016943;28;20041;-69
2022/12/25 10:42:06;;;;;;;26.23;17.02;;;11.10;99.90;;;;;;5015214;28;20034;-72
2022/12/25 10:44:33;;;;;;;27.70;16.20;;;8.90;99.90;;;;;;5032263;28;20082;-74
2022/12/25 10:47:00;;;;;;;33.63;18.23;;;12.70;99.90;;;;;;5032135;28;20398;-74
2022/12/25 10:49:53;;;;;;;25.02;15.23;;;8.90;99.90;;;;;;5015178;28;20038;-72
2022/12/25 10:52:21;;;;;;;26.88;15.20;;;9.00;99.90;;;;;;5021760;28;20050;-68
2022/12/25 10:54:47;;;;;;;30.25;15.43;;;9.60;99.90;;;;;;5029242;28;20095;-68
2022/12/25 10:57:18;;;;;;;35.20;20.45;;;11.30;99.90;;;;;;5030047;28;20493;-68
2022/12/25 10:59:55;;;;;;;26.35;15.95;;;9.40;99.90;;;;;;5032714;28;20037;-68
2022/12/25 11:02:28;;;;;;;28.00;14.88;;;9.60;99.90;;;;;;5030281;28;20124;-68
2022/12/25 11:05:03;;;;;;;24.55;15.73;;;8.90;99.90;;;;;;5032413;28;20075;-68
2022/12/25 11:07:30;;;;;;;31.88;17.45;;;11.90;99.90;;;;;;5028807;28;20072;-68
2022/12/25 11:10:15;;;;;;;29.23;15.10;;;13.00;99.90;;;;;;5026643;28;20038;-69
2022/12/25 11:12:44;;;;;;;30.23;16.17;;;13.00;99.90;;;;;;5030645;28;20047;-69
2022/12/25 11:15:25;;;;;;;20.52;13.93;;;12.30;99.90;;;;;;5028679;28;20036;-68
2022/12/25 11:17:50;;;;;;;27.52;15.70;;;11.30;99.90;;;;;;5029221;28;20042;-68
2022/12/25 11:20:18;;;;;;;24.88;13.57;;;10.40;99.90;;;;;;5027652;28;20041;-68
2022/12/25 11:22:46;;;;;;;39.33;19.98;;;12.30;99.90;;;;;;5029728;28;20380;-68
2022/12/25 11:25:19;;;;;;;24.42;15.40;;;11.20;99.90;;;;;;5026835;28;20171;-68
2022/12/25 11:27:54;;;;;;;23.33;13.20;;;12.90;99.90;;;;;;5014599;28;20057;-68
2022/12/25 11:30:20;;;;;;;20.45;11.38;;;12.90;99.90;;;;;;5024567;28;20490;-70
2022/12/25 11:32:54;;;;;;;25.25;14.70;;;12.50;99.90;;;;;;5020677;28;20042;-71
2022/12/25 11:35:23;;;;;;;23.83;14.88;;;9.50;99.90;;;;;;5027532;28;20041;-69
2022/12/25 11:37:51;;;;;;;26.48;14.18;;;13.20;99.90;;;;;;5030722;28;20037;-68
2022/12/25 11:40:20;;;;;;;23.38;14.23;;;12.90;99.90;;;;;;5018921;28;20029;-69
2022/12/25 11:42:53;;;;;;;25.40;15.60;;;11.50;99.90;;;;;;5030233;28;20045;-69
2022/12/25 11:45:26;;;;;;;22.10;12.85;;;13.00;99.90;;;;;;5031047;28;20392;-68
2022/12/25 11:47:57;;;;;;;25.73;14.48;;;9.90;99.90;;;;;;5032452;28;20547;-68
2022/12/25 11:50:37;;;;;;;26.80;16.25;;;12.90;99.90;;;;;;5030489;28;20113;-69
2022/12/25 11:53:06;;;;;;;23.40;13.48;;;13.10;99.90;;;;;;5015216;28;20033;-68
2022/12/25 11:55:40;;;;;;;25.13;15.25;;;12.90;99.90;;;;;;5031073;28;20038;-68
2022/12/25 11:58:24;;;;;;;27.38;16.88;;;9.60;99.90;;;;;;5030674;28;20060;-68
2022/12/25 12:00:53;;;;;;;29.83;17.73;;;12.40;99.90;;;;;;5030582;28;20053;-68
2022/12/25 12:03:29;;;;;;;25.40;15.23;;;10.30;99.90;;;;;;5030861;28;20090;-68
2022/12/25 12:05:54;;;;;;;;;;;13.00;99.90;;;;;;5031388;28;20049;-68
2022/12/25 12:08:20;;;;;;;22.93;15.07;;;9.70;99.90;;;;;;5030033;28;19928;-68
2022/12/25 12:11:16;;;;;;;21.33;13.55;;;10.60;99.90;;;;;;5031057;28;20478;-68
2022/12/25 12:14:22;;;;;;;21.45;14.82;;;10.30;99.90;;;;;;5030514;28;20407;-68
2022/12/25 12:16:47;;;;;;;23.20;13.88;;;11.70;99.90;;;;;;4989669;28;20085;-68
2022/12/25 12:19:29;;;;;;;27.25;15.75;;;9.80;99.90;;;;;;5024445;28;20077;-69
2022/12/25 12:22:01;;;;;;;22.30;14.07;;;12.70;99.90;;;;;;5030721;28;20042;-68
2022/12/25 12:24:34;;;;;;;27.60;16.15;;;10.40;99.90;;;;;;5031018;28;20041;-68
2022/12/25 12:27:12;;;;;;;27.88;15.45;;;10.60;99.90;;;;;;5030260;28;20124;-68
2022/12/25 12:29:44;;;;;;;23.88;13.80;;;13.30;99.90;;;;;;5023462;28;20446;-68
2022/12/25 12:32:36;;;;;;;20.77;13.63;;;10.40;99.90;;;;;;5022230;28;20041;-68
2022/12/25 12:35:20;;;;;;;22.55;13.65;;;9.90;99.90;;;;;;5027550;28;20044;-67
2022/12/25 12:37:49;;;;;;;20.92;13.90;;;10.10;99.90;;;;;;5026927;28;20106;-67
2022/12/25 12:40:40;;;;;;;22.02;13.77;;;12.60;99.90;;;;;;5030095;28;20068;-67
2022/12/25 12:43:22;;;;;;;21.10;13.15;;;13.00;99.90;;;;;;5027692;28;20037;-67
2022/12/25 12:46:12;;;;;;;22.67;12.50;;;12.40;99.90;;;;;;5029492;28;20037;-67
2022/12/25 12:48:41;;;;;;;16.38;12.07;;;9.40;99.90;;;;;;5029152;28;20397;-66
2022/12/25 12:51:10;;;;;;;20.65;12.40;;;10.60;99.90;;;;;;5030964;28;20029;-67
2022/12/25 12:53:38;;;;;;;18.33;12.30;;;9.40;99.90;;;;;;5033150;28;20026;-67
2022/12/25 12:56:16;;;;;;;19.33;12.98;;;11.10;99.90;;;;;;5029615;28;20083;-67
2022/12/25 12:58:47;;;;;;;22.85;12.88;;;11.70;99.90;;;;;;5029838;28;20107;-66
2022/12/25 13:01:22;;;;;;;19.15;12.65;;;9.40;99.90;;;;;;5033816;28;20398;-67
2022/12/25 13:03:50;;;;;;;20.20;12.38;;;13.00;99.90;;;;;;5033089;28;20041;-67
2022/12/25 13:06:38;;;;;;;21.35;12.63;;;9.50;99.90;;;;;;5032331;28;20168;-67
2022/12/25 13:09:19;;;;;;;19.10;12.85;;;12.70;99.90;;;;;;5030979;28;20076;-66
2022/12/25 13:11:45;;;;;;;18.55;12.35;;;12.70;99.90;;;;;;5032344;28;20464;-66
2022/12/25 13:14:17;;;;;;;22.45;13.30;;;11.00;99.90;;;;;;5031678;28;20097;-67
2022/12/25 13:16:45;;;;;;;19.30;13.23;;;13.00;99.90;;;;;;5033676;28;20549;-67
2022/12/25 13:19:16;;;;;;;18.17;12.52;;;12.60;99.90;;;;;;5033663;28;20048;-67
2022/12/25 13:21:52;;;;;;;18.95;12.95;;;12.90;99.90;;;;;;5032138;28;20033;-67
2022/12/25 13:24:20;;;;;;;23.95;13.88;;;12.60;99.90;;;;;;5033531;28;20046;-66
2022/12/25 13:26:46;;;;;;;20.75;12.75;;;12.70;99.90;;;;;;5035180;28;20052;-67
2022/12/25 13:29:32;;;;;;;23.35;13.45;;;12.70;99.90;;;;;;5031873;28;20077;-66
2022/12/25 13:31:59;;;;;;;19.80;12.73;;;13.10;99.90;;;;;;5030697;28;20041;-66
2022/12/25 13:34:30;;;;;;;19.17;12.75;;;13.10;99.90;;;;;;5032248;28;20037;-66
2022/12/25 13:37:05;;;;;;;19.13;12.40;;;11.30;99.90;;;;;;5033277;28;20049;-67
2022/12/25 13:39:33;;;;;;;22.02;12.90;;;9.90;99.90;;;;;;5025813;28;20511;-66
2022/12/25 13:42:05;;;;;;;21.40;13.18;;;10.30;99.90;;;;;;5032469;28;20120;-66
2022/12/25 13:44:47;;;;;;;23.08;13.50;;;12.90;99.90;;;;;;5031563;28;20049;-66
2022/12/25 13:47:19;;;;;;;18.27;12.68;;;9.70;99.90;;;;;;5034705;28;20029;-66
2022/12/25 13:49:46;;;;;;;22.65;13.45;;;9.50;99.90;;;;;;5032030;28;20513;-67
2022/12/25 13:52:14;;;;;;;18.15;12.18;;;13.10;99.90;;;;;;5022910;28;20121;-67
2022/12/25 13:54:56;;;;;;;22.48;11.95;;;9.50;99.90;;;;;;5040672;28;20069;-67
2022/12/25 13:57:26;;;;;;;17.23;11.23;;;11.60;99.90;;;;;;5032746;28;20129;-66
2022/12/25 13:59:52;;;;;;;23.58;13.35;;;11.40;99.90;;;;;;5031900;28;20508;-66
2022/12/25 14:02:22;;;;;;;19.75;13.63;;;10.10;99.90;;;;;;5029817;28;20112;-67
2022/12/25 14:04:48;;;;;;;21.10;13.52;;;11.90;99.90;;;;;;5028526;28;20479;-66
2022/12/25 14:07:22;;;;;;;20.30;13.63;;;10.50;99.90;;;;;;5018890;28;20100;-67
2022/12/25 14:09:58;;;;;;;21.98;12.63;;;11.20;99.90;;;;;;5020607;28;20033;-67
2022/12/25 14:12:24;;;;;;;18.75;12.82;;;13.30;99.90;;;;;;5030278;28;20185;-66
2022/12/25 14:14:51;;;;;;;20.08;13.75;;;9.60;99.90;;;;;;5015248;28;20048;-66
2022/12/25 14:17:17;;;;;;;19.85;13.15;;;10.00;99.90;;;;;;5033342;28;20045;-66
2022/12/25 14:19:43;;;;;;;21.13;13.73;;;9.70;99.90;;;;;;5030870;28;20033;-67
2022/12/25 14:22:17;;;;;;;18.98;12.85;;;11.10;99.90;;;;;;5028353;28;20092;-67
2022/12/25 14:24:42;;;;;;;23.13;13.10;;;13.10;99.90;;;;;;5045050;28;20030;-67
2022/12/25 14:27:19;;;;;;;24.10;14.18;;;12.90;99.90;;;;;;5032623;28;20056;-65